createdAt,value
2019-03-10T00:00:48.788Z,9.00
2019-03-10T00:01:48.740Z,8.92
2019-03-10T00:02:48.690Z,9.11
2019-03-10T00:03:48.649Z,8.93
2019-03-10T00:04:48.595Z,9.02
2019-03-10T00:05:48.555Z,9.11
2019-03-10T00:06:48.505Z,9.11
2019-03-10T00:07:48.452Z,9.05
2019-03-10T00:08:48.583Z,9.05
2019-03-10T00:09:48.398Z,9.12
2019-03-10T00:10:48.307Z,9.16
2019-03-10T00:11:48.262Z,9.02
2019-03-10T00:12:48.215Z,9.15
2019-03-10T00:13:48.167Z,9.13
2019-03-10T00:14:48.120Z,9.11
2019-03-10T00:15:48.070Z,9.00
2019-03-10T00:16:48.030Z,9.11
2019-03-10T00:17:47.973Z,9.11
2019-03-10T00:18:47.925Z,9.03
2019-03-10T00:19:47.879Z,9.11
2019-03-10T00:20:47.833Z,9.08
2019-03-10T00:21:47.893Z,9.12
2019-03-10T00:22:47.733Z,9.08
2019-03-10T00:23:47.685Z,9.13
2019-03-10T00:24:47.641Z,9.11
2019-03-10T00:25:47.600Z,9.12
2019-03-10T00:26:47.543Z,9.03
2019-03-10T00:27:47.495Z,9.16
2019-03-10T00:28:47.446Z,9.18
2019-03-10T00:29:47.399Z,9.08
2019-03-10T00:30:47.351Z,9.08
2019-03-10T00:31:47.317Z,9.13
2019-03-10T00:32:47.256Z,9.08
2019-03-10T00:33:47.209Z,9.03
2019-03-10T00:34:47.169Z,9.03
2019-03-10T00:35:47.115Z,9.05
2019-03-10T00:36:47.072Z,9.11
2019-03-10T00:37:47.017Z,9.09
2019-03-10T00:38:47.066Z,9.08
2019-03-10T00:39:46.921Z,9.09
2019-03-10T00:40:46.873Z,9.05
2019-03-10T00:41:46.830Z,9.08
2019-03-10T00:42:46.779Z,9.02
2019-03-10T00:43:46.729Z,9.00
2019-03-10T00:44:46.682Z,9.09
2019-03-10T00:45:46.635Z,9.09
2019-03-10T00:46:46.587Z,9.15
2019-03-10T00:47:46.544Z,9.08
2019-03-10T00:48:46.492Z,9.08
2019-03-10T00:49:46.443Z,9.00
2019-03-10T00:50:46.395Z,9.09
2019-03-10T00:51:46.350Z,9.02
2019-03-10T00:52:46.306Z,9.11
2019-03-10T00:53:46.251Z,9.13
2019-03-10T00:54:46.202Z,9.03
2019-03-10T00:55:46.157Z,9.11
2019-03-10T00:56:46.111Z,8.95
2019-03-10T00:57:46.059Z,8.99
2019-03-10T00:58:46.024Z,9.00
2019-03-10T00:59:46.046Z,9.02
2019-03-10T01:00:45.922Z,9.05
2019-03-10T01:01:45.874Z,9.00
2019-03-10T01:02:45.828Z,9.11
2019-03-10T01:03:45.776Z,9.05
2019-03-10T01:04:45.729Z,9.02
2019-03-10T01:05:45.678Z,9.03
2019-03-10T01:06:45.634Z,9.02
2019-03-10T01:07:45.587Z,9.12
2019-03-10T01:08:45.538Z,9.00
2019-03-10T01:09:45.491Z,9.11
2019-03-10T01:10:45.443Z,9.05
2019-03-10T01:11:45.392Z,9.08
2019-03-10T01:12:45.347Z,9.12
2019-03-10T01:13:45.296Z,9.05
2019-03-10T01:14:45.250Z,8.99
2019-03-10T01:15:45.203Z,9.05
2019-03-10T01:16:45.180Z,9.00
2019-03-10T01:17:45.124Z,9.03
2019-03-10T01:18:45.107Z,9.02
2019-03-10T01:19:45.012Z,9.02
2019-03-10T01:20:44.963Z,9.03
2019-03-10T01:21:44.914Z,9.03
2019-03-10T01:22:44.873Z,9.05
2019-03-10T01:23:44.822Z,9.12
2019-03-10T01:24:44.772Z,8.99
2019-03-10T01:25:44.726Z,8.96
2019-03-10T01:26:44.678Z,9.09
2019-03-10T01:27:44.633Z,9.03
2019-03-10T01:28:44.613Z,9.12
2019-03-10T01:29:44.543Z,9.12
2019-03-10T01:30:44.492Z,9.05
2019-03-10T01:31:44.437Z,8.99
2019-03-10T01:32:44.389Z,9.02
2019-03-10T01:33:44.341Z,9.09
2019-03-10T01:34:44.298Z,9.02
2019-03-10T01:35:44.249Z,9.05
2019-03-10T01:36:44.200Z,9.02
2019-03-10T01:37:44.151Z,9.11
2019-03-10T01:38:44.103Z,8.99
2019-03-10T01:39:44.058Z,8.99
2019-03-10T01:40:44.008Z,9.05
2019-03-10T01:41:43.959Z,8.99
2019-03-10T01:42:43.915Z,9.03
2019-03-10T01:43:43.864Z,9.09
2019-03-10T01:44:43.873Z,9.03
2019-03-10T01:45:43.784Z,8.99
2019-03-10T01:46:43.722Z,9.02
2019-03-10T01:47:43.697Z,8.96
2019-03-10T01:48:43.626Z,9.05
2019-03-10T01:49:43.577Z,8.97
2019-03-10T01:50:43.533Z,9.09
2019-03-10T01:51:43.482Z,9.00
2019-03-10T01:52:43.434Z,9.02
2019-03-10T01:53:43.394Z,9.02
2019-03-10T01:54:43.341Z,9.00
2019-03-10T01:55:43.290Z,8.97
2019-03-10T01:56:43.247Z,8.97
2019-03-10T01:57:43.195Z,9.02
2019-03-10T01:58:43.147Z,8.97
2019-03-10T01:59:43.111Z,8.97
2019-03-10T02:00:43.052Z,9.00
2019-03-10T02:01:43.010Z,9.05
2019-03-10T02:02:42.960Z,9.00
2019-03-10T02:03:42.910Z,8.93
2019-03-10T02:04:42.936Z,8.97
2019-03-10T02:05:42.813Z,8.95
2019-03-10T02:06:42.927Z,8.99
2019-03-10T02:07:42.747Z,8.95
2019-03-10T02:08:42.673Z,8.95
2019-03-10T02:09:42.658Z,8.97
2019-03-10T02:10:42.615Z,9.05
2019-03-10T02:11:42.527Z,8.93
2019-03-10T02:12:42.490Z,9.05
2019-03-10T02:13:42.433Z,8.97
2019-03-10T02:14:42.387Z,8.97
2019-03-10T02:15:42.341Z,8.93
2019-03-10T02:16:42.289Z,9.02
2019-03-10T02:17:42.243Z,9.09
2019-03-10T02:18:42.198Z,9.08
2019-03-10T02:19:42.149Z,9.03
2019-03-10T02:20:42.099Z,9.03
2019-03-10T02:21:42.058Z,9.02
2019-03-10T02:22:42.001Z,9.08
2019-03-10T02:23:42.087Z,9.02
2019-03-10T02:24:41.906Z,9.08
2019-03-10T02:25:41.861Z,9.09
2019-03-10T02:26:41.816Z,9.03
2019-03-10T02:27:41.771Z,9.13
2019-03-10T02:28:41.715Z,9.16
2019-03-10T02:29:41.670Z,9.02
2019-03-10T02:30:41.653Z,9.02
2019-03-10T02:31:41.578Z,9.18
2019-03-10T02:32:41.525Z,9.05
2019-03-10T02:33:41.479Z,9.05
2019-03-10T02:34:41.432Z,9.12
2019-03-10T02:35:41.381Z,9.05
2019-03-10T02:36:41.334Z,9.11
2019-03-10T02:37:41.290Z,9.05
2019-03-10T02:38:41.254Z,9.13
2019-03-10T02:39:41.193Z,9.18
2019-03-10T02:40:43.375Z,9.13
2019-03-10T02:41:41.097Z,9.11
2019-03-10T02:42:41.065Z,8.99
2019-03-10T02:43:41.008Z,9.11
2019-03-10T02:44:40.956Z,8.97
2019-03-10T02:45:40.904Z,9.09
2019-03-10T02:46:40.864Z,9.08
2019-03-10T02:47:40.809Z,8.95
2019-03-10T02:48:40.762Z,8.96
2019-03-10T02:49:40.714Z,9.02
2019-03-10T02:50:40.666Z,8.97
2019-03-10T02:51:40.619Z,8.95
2019-03-10T02:52:40.580Z,8.96
2019-03-10T02:53:40.527Z,8.96
2019-03-10T02:54:40.478Z,8.96
2019-03-10T02:55:40.431Z,8.89
2019-03-10T02:56:40.389Z,8.90
2019-03-10T02:57:40.332Z,8.96
2019-03-10T02:58:40.282Z,8.89
2019-03-10T02:59:40.247Z,8.87
2019-03-10T03:00:40.189Z,8.86
2019-03-10T03:01:40.154Z,8.82
2019-03-10T03:02:40.107Z,8.82
2019-03-10T03:03:40.043Z,8.81
2019-03-10T03:04:39.996Z,8.95
2019-03-10T03:05:39.949Z,8.86
2019-03-10T03:06:39.905Z,8.89
2019-03-10T03:07:39.866Z,8.84
2019-03-10T03:08:39.811Z,8.81
2019-03-10T03:09:39.759Z,8.84
2019-03-10T03:10:39.708Z,8.78
2019-03-10T03:11:39.664Z,8.81
2019-03-10T03:12:39.616Z,8.68
2019-03-10T03:13:39.565Z,8.78
2019-03-10T03:14:39.594Z,8.77
2019-03-10T03:15:39.470Z,8.78
2019-03-10T03:16:39.441Z,8.82
2019-03-10T03:17:39.382Z,8.77
2019-03-10T03:18:39.329Z,8.78
2019-03-10T03:19:39.281Z,8.71
2019-03-10T03:20:39.231Z,8.71
2019-03-10T03:21:43.484Z,8.66
2019-03-10T03:22:39.137Z,8.74
2019-03-10T03:23:39.093Z,8.69
2019-03-10T03:24:39.043Z,8.63
2019-03-10T03:25:38.995Z,8.63
2019-03-10T03:26:38.946Z,8.69
2019-03-10T03:27:38.898Z,8.60
2019-03-10T03:28:38.861Z,8.63
2019-03-10T03:29:38.801Z,8.59
2019-03-10T03:30:38.774Z,8.60
2019-03-10T03:31:38.711Z,8.72
2019-03-10T03:32:38.660Z,8.61
2019-03-10T03:33:38.609Z,8.60
2019-03-10T03:34:38.582Z,8.63
2019-03-10T03:35:38.588Z,8.59
2019-03-10T03:36:38.469Z,8.66
2019-03-10T03:37:38.422Z,8.56
2019-03-10T03:38:38.391Z,8.61
2019-03-10T03:39:38.327Z,8.53
2019-03-10T03:40:38.276Z,8.68
2019-03-10T03:41:38.231Z,8.52
2019-03-10T03:42:38.178Z,8.57
2019-03-10T03:43:38.139Z,8.54
2019-03-10T03:44:38.109Z,8.54
2019-03-10T03:45:38.035Z,8.60
2019-03-10T03:46:37.990Z,8.52
2019-03-10T03:47:37.944Z,8.53
2019-03-10T03:48:37.899Z,8.60
2019-03-10T03:49:37.844Z,8.56
2019-03-10T03:50:37.803Z,8.54
2019-03-10T03:51:37.754Z,8.53
2019-03-10T03:52:37.703Z,8.50
2019-03-10T03:53:37.657Z,8.52
2019-03-10T03:54:37.612Z,8.56
2019-03-10T03:55:37.561Z,8.50
2019-03-10T03:56:37.508Z,8.53
2019-03-10T03:57:37.464Z,8.50
2019-03-10T03:58:37.420Z,8.49
2019-03-10T03:59:37.365Z,8.45
2019-03-10T04:00:37.321Z,8.46
2019-03-10T04:01:37.269Z,8.39
2019-03-10T04:02:37.233Z,8.38
2019-03-10T04:03:37.175Z,8.44
2019-03-10T04:04:37.127Z,8.32
2019-03-10T04:05:37.077Z,8.34
2019-03-10T04:06:37.032Z,8.34
2019-03-10T04:07:36.985Z,8.35
2019-03-10T04:08:36.937Z,8.32
2019-03-10T04:09:36.917Z,8.31
2019-03-10T04:10:36.840Z,8.31
2019-03-10T04:11:36.789Z,8.23
2019-03-10T04:12:36.743Z,8.17
2019-03-10T04:13:36.696Z,8.23
2019-03-10T04:14:36.646Z,8.16
2019-03-10T04:15:36.598Z,8.17
2019-03-10T04:16:36.571Z,8.23
2019-03-10T04:17:36.501Z,8.20
2019-03-10T04:18:36.453Z,8.20
2019-03-10T04:19:36.419Z,8.18
2019-03-10T04:20:36.363Z,8.20
2019-03-10T04:21:36.311Z,8.20
2019-03-10T04:22:36.262Z,8.18
2019-03-10T04:23:36.238Z,8.17
2019-03-10T04:24:36.170Z,8.17
2019-03-10T04:25:36.117Z,8.18
2019-03-10T04:26:36.069Z,8.06
2019-03-10T04:27:36.021Z,8.11
2019-03-10T04:28:35.975Z,8.05
2019-03-10T04:29:35.926Z,8.13
2019-03-10T04:30:35.880Z,8.17
2019-03-10T04:31:35.833Z,8.09
2019-03-10T04:32:35.789Z,8.06
2019-03-10T04:33:35.732Z,8.05
2019-03-10T04:34:35.704Z,8.02
2019-03-10T04:35:35.636Z,8.05
2019-03-10T04:36:35.591Z,8.06
2019-03-10T04:37:35.540Z,8.05
2019-03-10T04:38:35.493Z,8.05
2019-03-10T04:39:35.443Z,7.96
2019-03-10T04:40:35.396Z,7.99
2019-03-10T04:41:35.355Z,8.03
2019-03-10T04:42:35.298Z,7.93
2019-03-10T04:43:35.257Z,7.96
2019-03-10T04:44:36.283Z,7.99
2019-03-10T04:45:35.156Z,7.96
2019-03-10T04:46:35.109Z,7.99
2019-03-10T04:47:35.060Z,7.98
2019-03-10T04:48:35.016Z,7.96
2019-03-10T04:49:34.964Z,7.96
2019-03-10T04:50:34.918Z,8.03
2019-03-10T04:51:34.868Z,7.93
2019-03-10T04:52:34.820Z,7.96
2019-03-10T04:53:34.773Z,7.93
2019-03-10T04:54:34.728Z,7.90
2019-03-10T04:55:34.675Z,7.96
2019-03-10T04:56:34.630Z,7.93
2019-03-10T04:57:34.579Z,7.88
2019-03-10T04:58:34.530Z,7.93
2019-03-10T04:59:34.483Z,7.93
2019-03-10T05:00:34.434Z,7.90
2019-03-10T05:01:34.393Z,7.85
2019-03-10T05:02:34.341Z,7.84
2019-03-10T05:03:34.290Z,7.88
2019-03-10T05:04:34.244Z,7.88
2019-03-10T05:05:34.195Z,7.90
2019-03-10T05:06:34.143Z,7.85
2019-03-10T05:07:34.099Z,7.90
2019-03-10T05:08:34.058Z,7.85
2019-03-10T05:09:33.999Z,7.88
2019-03-10T05:10:33.970Z,7.87
2019-03-10T05:11:33.909Z,7.84
2019-03-10T05:12:33.856Z,7.87
2019-03-10T05:13:33.805Z,7.84
2019-03-10T05:14:33.765Z,7.84
2019-03-10T05:15:33.712Z,7.85
2019-03-10T05:16:33.663Z,7.91
2019-03-10T05:17:33.620Z,7.90
2019-03-10T05:18:33.568Z,7.91
2019-03-10T05:19:33.521Z,7.91
2019-03-10T05:20:33.524Z,7.85
2019-03-10T05:21:33.421Z,7.88
2019-03-10T05:22:33.378Z,7.88
2019-03-10T05:23:33.342Z,7.87
2019-03-10T05:24:33.279Z,7.74
2019-03-10T05:25:33.230Z,7.75
2019-03-10T05:26:33.183Z,7.80
2019-03-10T05:27:33.134Z,7.75
2019-03-10T05:28:33.085Z,7.77
2019-03-10T05:29:33.041Z,7.78
2019-03-10T05:30:32.993Z,7.78
2019-03-10T05:31:32.942Z,7.78
2019-03-10T05:32:32.900Z,7.77
2019-03-10T05:33:32.846Z,7.81
2019-03-10T05:34:32.800Z,7.69
2019-03-10T05:35:32.748Z,7.67
2019-03-10T05:36:32.699Z,7.72
2019-03-10T05:37:32.655Z,7.72
2019-03-10T05:38:32.607Z,7.72
2019-03-10T05:39:32.555Z,7.70
2019-03-10T05:40:32.507Z,7.69
2019-03-10T05:41:32.458Z,7.78
2019-03-10T05:42:32.412Z,7.72
2019-03-10T05:43:32.364Z,7.72
2019-03-10T05:44:32.313Z,7.83
2019-03-10T05:45:32.265Z,7.67
2019-03-10T05:46:32.219Z,7.70
2019-03-10T05:47:32.174Z,7.75
2019-03-10T05:48:32.124Z,7.67
2019-03-10T05:49:32.072Z,7.74
2019-03-10T05:50:32.028Z,7.78
2019-03-10T05:51:31.978Z,7.75
2019-03-10T05:52:31.934Z,7.72
2019-03-10T05:53:31.883Z,7.61
2019-03-10T05:54:31.834Z,7.70
2019-03-10T05:55:31.784Z,7.70
2019-03-10T05:56:32.041Z,7.80
2019-03-10T05:57:31.688Z,7.66
2019-03-10T05:58:31.640Z,7.74
2019-03-10T05:59:31.591Z,7.77
2019-03-10T06:00:41.815Z,7.69
2019-03-10T06:01:31.496Z,7.74
2019-03-10T06:02:31.446Z,7.69
2019-03-10T06:03:31.398Z,7.72
2019-03-10T06:04:31.352Z,7.72
2019-03-10T06:05:31.302Z,7.75
2019-03-10T06:06:31.254Z,7.59
2019-03-10T06:07:31.204Z,7.69
2019-03-10T06:08:31.159Z,7.75
2019-03-10T06:09:31.107Z,7.64
2019-03-10T06:10:31.062Z,7.70
2019-03-10T06:11:31.014Z,7.69
2019-03-10T06:12:30.965Z,7.55
2019-03-10T06:13:30.915Z,7.70
2019-03-10T06:14:30.868Z,7.62
2019-03-10T06:15:30.818Z,7.69
2019-03-10T06:16:30.771Z,7.55
2019-03-10T06:17:30.722Z,7.53
2019-03-10T06:18:30.674Z,7.59
2019-03-10T06:19:30.623Z,7.55
2019-03-10T06:20:30.576Z,7.55
2019-03-10T06:21:30.531Z,7.55
2019-03-10T06:22:30.547Z,7.53
2019-03-10T06:23:30.430Z,7.53
2019-03-10T06:24:30.382Z,7.41
2019-03-10T06:25:30.342Z,7.43
2019-03-10T06:26:30.284Z,7.50
2019-03-10T06:27:30.239Z,7.46
2019-03-10T06:28:30.191Z,7.48
2019-03-10T06:29:30.141Z,7.50
2019-03-10T06:30:30.093Z,7.48
2019-03-10T06:31:30.048Z,7.55
2019-03-10T06:32:30.007Z,7.44
2019-03-10T06:33:29.952Z,7.44
2019-03-10T06:34:29.897Z,7.50
2019-03-10T06:35:29.850Z,7.48
2019-03-10T06:36:29.801Z,7.41
2019-03-10T06:37:29.751Z,7.48
2019-03-10T06:38:29.706Z,7.41
2019-03-10T06:39:29.655Z,7.44
2019-03-10T06:40:32.493Z,7.41
2019-03-10T06:41:29.564Z,7.46
2019-03-10T06:42:29.513Z,7.44
2019-03-10T06:43:29.464Z,7.50
2019-03-10T06:44:29.417Z,7.41
2019-03-10T06:45:29.367Z,7.39
2019-03-10T06:46:29.326Z,7.46
2019-03-10T06:47:29.268Z,7.46
2019-03-10T06:48:29.220Z,7.39
2019-03-10T06:49:29.172Z,7.37
2019-03-10T06:50:29.125Z,7.43
2019-03-10T06:51:29.077Z,7.41
2019-03-10T06:52:29.031Z,7.46
2019-03-10T06:53:28.987Z,7.44
2019-03-10T06:54:28.932Z,7.46
2019-03-10T06:55:28.885Z,7.47
2019-03-10T06:56:28.833Z,7.46
2019-03-10T06:57:32.388Z,7.47
2019-03-10T06:58:28.738Z,7.47
2019-03-10T06:59:28.693Z,7.46
2019-03-10T07:00:28.641Z,7.48
2019-03-10T07:01:28.592Z,7.56
2019-03-10T07:02:28.544Z,7.48
2019-03-10T07:03:28.500Z,7.46
2019-03-10T07:04:28.446Z,7.46
2019-03-10T07:05:28.402Z,7.48
2019-03-10T07:06:28.350Z,7.43
2019-03-10T07:07:28.303Z,7.51
2019-03-10T07:08:28.253Z,7.43
2019-03-10T07:09:28.211Z,7.44
2019-03-10T07:10:28.162Z,7.43
2019-03-10T07:11:28.111Z,7.39
2019-03-10T07:12:28.062Z,7.31
2019-03-10T07:13:28.011Z,7.40
2019-03-10T07:14:27.969Z,7.40
2019-03-10T07:15:27.913Z,7.43
2019-03-10T07:16:27.867Z,7.43
2019-03-10T07:17:27.817Z,7.43
2019-03-10T07:18:27.773Z,7.50
2019-03-10T07:19:27.721Z,7.47
2019-03-10T07:20:27.673Z,7.48
2019-03-10T07:21:27.626Z,7.43
2019-03-10T07:22:27.578Z,7.47
2019-03-10T07:23:27.526Z,7.48
2019-03-10T07:24:27.477Z,7.46
2019-03-10T07:25:27.428Z,7.50
2019-03-10T07:26:27.383Z,7.47
2019-03-10T07:27:27.333Z,7.53
2019-03-10T07:28:27.286Z,7.48
2019-03-10T07:29:27.251Z,7.46
2019-03-10T07:30:27.191Z,7.48
2019-03-10T07:31:27.139Z,7.48
2019-03-10T07:32:27.101Z,7.47
2019-03-10T07:33:27.046Z,7.56
2019-03-10T07:34:26.997Z,7.48
2019-03-10T07:35:26.951Z,7.58
2019-03-10T07:36:26.901Z,7.53
2019-03-10T07:37:26.870Z,7.59
2019-03-10T07:38:26.800Z,7.58
2019-03-10T07:39:26.753Z,7.56
2019-03-10T07:40:26.707Z,7.62
2019-03-10T07:41:26.660Z,7.58
2019-03-10T07:42:26.612Z,7.67
2019-03-10T07:43:26.560Z,7.56
2019-03-10T07:44:26.520Z,7.51
2019-03-10T07:45:26.465Z,7.53
2019-03-10T07:46:26.416Z,7.56
2019-03-10T07:47:26.367Z,7.58
2019-03-10T07:48:26.325Z,7.61
2019-03-10T07:49:26.272Z,7.62
2019-03-10T07:50:26.223Z,7.62
2019-03-10T07:51:26.218Z,7.53
2019-03-10T07:52:26.125Z,7.67
2019-03-10T07:53:26.083Z,7.61
2019-03-10T07:54:26.031Z,7.62
2019-03-10T07:55:25.985Z,7.72
2019-03-10T07:56:25.935Z,7.74
2019-03-10T07:57:25.883Z,7.74
2019-03-10T07:58:25.834Z,7.69
2019-03-10T07:59:25.786Z,7.81
2019-03-10T08:00:25.745Z,7.75
2019-03-10T08:01:25.691Z,7.69
2019-03-10T08:02:25.642Z,7.64
2019-03-10T08:03:26.916Z,7.74
2019-03-10T08:04:25.544Z,7.72
2019-03-10T08:05:25.499Z,7.69
2019-03-10T08:06:25.454Z,7.69
2019-03-10T08:07:25.399Z,7.74
2019-03-10T08:08:25.362Z,7.67
2019-03-10T08:09:25.304Z,7.75
2019-03-10T08:10:25.256Z,7.77
2019-03-10T08:11:25.206Z,7.75
2019-03-10T08:12:25.158Z,7.77
2019-03-10T08:13:25.111Z,7.72
2019-03-10T08:14:25.062Z,7.81
2019-03-10T08:15:25.019Z,7.74
2019-03-10T08:16:24.967Z,7.80
2019-03-10T08:17:24.917Z,7.83
2019-03-10T08:18:24.870Z,7.81
2019-03-10T08:19:24.824Z,7.96
2019-03-10T08:20:24.777Z,7.93
2019-03-10T08:21:24.726Z,7.96
2019-03-10T08:22:24.684Z,8.02
2019-03-10T08:23:24.628Z,8.01
2019-03-10T08:24:24.581Z,8.08
2019-03-10T08:25:24.532Z,8.16
2019-03-10T08:26:24.487Z,8.16
2019-03-10T08:27:24.437Z,8.16
2019-03-10T08:28:24.396Z,8.17
2019-03-10T08:29:24.345Z,8.16
2019-03-10T08:30:24.293Z,8.11
2019-03-10T08:31:24.249Z,8.16
2019-03-10T08:32:24.196Z,8.16
2019-03-10T08:33:24.151Z,8.21
2019-03-10T08:34:24.104Z,8.16
2019-03-10T08:35:24.060Z,8.18
2019-03-10T08:36:24.005Z,8.27
2019-03-10T08:37:23.959Z,8.21
2019-03-10T08:38:23.916Z,8.27
2019-03-10T08:39:23.859Z,8.20
2019-03-10T08:40:23.812Z,8.26
2019-03-10T08:41:23.768Z,8.26
2019-03-10T08:42:23.716Z,8.36
2019-03-10T08:43:23.668Z,8.42
2019-03-10T08:44:23.620Z,8.36
2019-03-10T08:45:23.580Z,8.44
2019-03-10T08:46:23.526Z,8.57
2019-03-10T08:47:23.481Z,8.59
2019-03-10T08:48:23.443Z,8.64
2019-03-10T08:49:23.379Z,8.63
2019-03-10T08:50:23.332Z,8.71
2019-03-10T08:51:23.290Z,8.66
2019-03-10T08:52:23.239Z,8.64
2019-03-10T08:53:23.192Z,8.63
2019-03-10T08:54:23.145Z,8.64
2019-03-10T08:55:23.094Z,8.61
2019-03-10T08:56:23.047Z,8.66
2019-03-10T08:57:23.002Z,8.66
2019-03-10T08:58:22.950Z,8.61
2019-03-10T08:59:22.902Z,8.59
2019-03-10T09:00:22.855Z,8.54
2019-03-10T09:01:22.809Z,8.64
2019-03-10T09:02:22.759Z,8.64
2019-03-10T09:03:22.710Z,8.64
2019-03-10T09:05:22.617Z,8.64
2019-03-10T09:06:22.573Z,8.66
2019-03-10T09:07:22.523Z,8.68
2019-03-10T09:08:22.480Z,8.75
2019-03-10T09:09:22.425Z,8.77
2019-03-10T09:10:22.377Z,8.71
2019-03-10T09:11:22.414Z,8.82
2019-03-10T09:12:22.292Z,8.69
2019-03-10T09:13:22.235Z,8.81
2019-03-10T09:14:22.188Z,8.74
2019-03-10T09:15:22.138Z,8.74
2019-03-10T09:16:22.090Z,8.82
2019-03-10T09:17:22.053Z,8.84
2019-03-10T09:18:22.000Z,8.86
2019-03-10T09:19:21.952Z,9.05
2019-03-10T09:20:21.905Z,9.11
2019-03-10T09:21:21.854Z,9.16
2019-03-10T09:22:21.831Z,9.15
2019-03-10T09:23:21.762Z,9.24
2019-03-10T09:24:21.709Z,9.33
2019-03-10T09:25:21.660Z,9.29
2019-03-10T09:26:21.613Z,9.21
2019-03-10T09:27:21.572Z,9.24
2019-03-10T09:28:21.522Z,9.19
2019-03-10T09:29:21.488Z,9.19
2019-03-10T09:30:21.422Z,9.22
2019-03-10T09:31:21.374Z,9.22
2019-03-10T09:32:21.330Z,9.13
2019-03-10T09:33:21.314Z,9.18
2019-03-10T09:34:21.233Z,9.15
2019-03-10T09:35:21.184Z,9.08
2019-03-10T09:36:21.141Z,9.08
2019-03-10T09:37:21.139Z,9.18
2019-03-10T09:38:21.044Z,9.13
2019-03-10T09:39:20.999Z,9.18
2019-03-10T09:40:20.947Z,9.15
2019-03-10T09:41:20.899Z,9.09
2019-03-10T09:42:20.855Z,9.18
2019-03-10T09:43:20.804Z,9.21
2019-03-10T09:44:20.762Z,9.19
2019-03-10T09:45:20.714Z,9.24
2019-03-10T09:46:20.665Z,9.34
2019-03-10T09:47:20.617Z,9.30
2019-03-10T09:48:20.568Z,9.40
2019-03-10T09:49:20.523Z,9.34
2019-03-10T09:50:20.586Z,9.48
2019-03-10T09:51:20.428Z,9.56
2019-03-10T09:52:20.378Z,9.59
2019-03-10T09:53:20.338Z,9.63
2019-03-10T09:54:20.305Z,9.73
2019-03-10T09:55:20.241Z,9.88
2019-03-10T09:56:20.192Z,9.97
2019-03-10T09:57:20.151Z,10.06
2019-03-10T09:58:20.092Z,10.09
2019-03-10T09:59:20.044Z,10.15
2019-03-10T10:00:20.001Z,10.18
2019-03-10T10:01:19.952Z,10.15
2019-03-10T10:02:19.906Z,10.18
2019-03-10T10:03:19.857Z,10.28
2019-03-10T10:04:19.808Z,10.12
2019-03-10T10:05:19.763Z,10.15
2019-03-10T10:06:19.721Z,10.20
2019-03-10T10:07:19.669Z,10.15
2019-03-10T10:08:19.624Z,10.15
2019-03-10T10:09:19.571Z,10.18
2019-03-10T10:10:19.529Z,10.20
2019-03-10T10:11:19.480Z,10.09
2019-03-10T10:12:19.431Z,10.20
2019-03-10T10:13:19.384Z,10.20
2019-03-10T10:14:19.338Z,10.18
2019-03-10T10:15:19.291Z,10.27
2019-03-10T10:16:19.244Z,10.36
2019-03-10T10:17:19.197Z,10.38
2019-03-10T10:18:19.148Z,10.36
2019-03-10T10:19:19.106Z,10.48
2019-03-10T10:20:19.058Z,10.55
2019-03-10T10:21:19.008Z,10.62
2019-03-10T10:22:18.964Z,10.64
2019-03-10T10:23:18.916Z,10.72
2019-03-10T10:24:18.870Z,10.76
2019-03-10T10:25:18.822Z,10.80
2019-03-10T10:26:18.778Z,10.80
2019-03-10T10:27:20.198Z,10.89
2019-03-10T10:28:18.680Z,10.94
2019-03-10T10:29:18.638Z,11.12
2019-03-10T10:30:18.658Z,11.16
2019-03-10T10:31:18.540Z,11.30
2019-03-10T10:32:18.495Z,11.27
2019-03-10T10:33:18.444Z,11.26
2019-03-10T10:34:18.403Z,11.30
2019-03-10T10:35:18.402Z,11.41
2019-03-10T10:36:18.311Z,11.43
2019-03-10T10:37:18.259Z,11.53
2019-03-10T10:38:19.214Z,11.53
2019-03-10T10:39:18.168Z,11.49
2019-03-10T10:40:18.118Z,11.60
2019-03-10T10:41:18.073Z,11.60
2019-03-10T10:42:18.035Z,11.59
2019-03-10T10:43:17.977Z,11.48
2019-03-10T10:44:17.932Z,11.60
2019-03-10T10:45:17.956Z,11.68
2019-03-10T10:46:17.843Z,11.67
2019-03-10T10:47:17.791Z,11.83
2019-03-10T10:48:17.754Z,11.86
2019-03-10T10:49:17.698Z,11.96
2019-03-10T10:50:17.680Z,12.00
2019-03-10T10:51:17.622Z,12.11
2019-03-10T10:52:17.614Z,12.18
2019-03-10T10:53:17.530Z,12.35
2019-03-10T10:54:17.466Z,12.53
2019-03-10T10:55:17.424Z,12.51
2019-03-10T10:56:17.376Z,12.61
2019-03-10T10:57:17.342Z,12.76
2019-03-10T10:58:17.281Z,12.83
2019-03-10T10:59:17.234Z,12.88
2019-03-10T11:00:17.197Z,13.05
2019-03-10T11:01:17.145Z,13.02
2019-03-10T11:02:17.099Z,13.02
2019-03-10T11:03:17.052Z,13.20
2019-03-10T11:04:17.011Z,13.20
2019-03-10T11:05:16.961Z,13.31
2019-03-10T11:06:16.916Z,13.30
2019-03-10T11:07:16.872Z,13.28
2019-03-10T11:08:16.825Z,13.49
2019-03-10T11:09:16.779Z,13.45
2019-03-10T11:10:16.777Z,13.46
2019-03-10T11:11:16.791Z,13.58
2019-03-10T11:12:16.639Z,13.61
2019-03-10T11:13:16.608Z,13.57
2019-03-10T11:14:16.592Z,13.62
2019-03-10T11:15:16.500Z,13.73
2019-03-10T11:16:16.455Z,13.62
2019-03-10T11:17:16.413Z,13.62
2019-03-10T11:18:16.365Z,13.58
2019-03-10T11:19:16.322Z,13.68
2019-03-10T11:20:16.336Z,13.60
2019-03-10T11:21:16.229Z,13.70
2019-03-10T11:22:16.188Z,13.78
2019-03-10T11:23:16.137Z,13.83
2019-03-10T11:24:16.095Z,13.83
2019-03-10T11:25:16.045Z,13.71
2019-03-10T11:26:16.000Z,13.60
2019-03-10T11:27:15.957Z,13.60
2019-03-10T11:28:15.920Z,13.52
2019-03-10T11:29:15.869Z,13.54
2019-03-10T11:30:15.829Z,13.37
2019-03-10T11:31:15.776Z,13.40
2019-03-10T11:32:15.729Z,13.27
2019-03-10T11:33:15.680Z,13.31
2019-03-10T11:34:15.641Z,13.17
2019-03-10T11:35:15.591Z,13.19
2019-03-10T11:36:15.546Z,13.11
2019-03-10T11:37:15.501Z,13.02
2019-03-10T11:38:15.459Z,12.91
2019-03-10T11:39:15.416Z,12.88
2019-03-10T11:40:15.362Z,12.65
2019-03-10T11:41:15.316Z,12.39
2019-03-10T11:42:15.271Z,12.18
2019-03-10T11:43:15.233Z,12.08
2019-03-10T11:44:15.181Z,12.02
2019-03-10T11:45:15.136Z,11.99
2019-03-10T11:46:15.100Z,11.81
2019-03-10T11:47:15.052Z,11.76
2019-03-10T11:48:15.003Z,11.67
2019-03-10T11:49:14.952Z,11.65
2019-03-10T11:50:15.296Z,11.55
2019-03-10T11:51:14.853Z,11.58
2019-03-10T11:52:14.808Z,11.65
2019-03-10T11:53:19.275Z,11.65
2019-03-10T11:54:14.739Z,11.70
2019-03-10T11:55:14.804Z,11.89
2019-03-10T11:56:14.636Z,11.95
2019-03-10T11:57:14.575Z,11.88
2019-03-10T11:58:14.528Z,11.81
2019-03-10T11:59:14.493Z,11.73
2019-03-10T12:00:14.437Z,11.76
2019-03-10T12:01:14.394Z,11.68
2019-03-10T12:02:16.340Z,11.67
2019-03-10T12:03:14.311Z,11.60
2019-03-10T12:04:14.250Z,11.52
2019-03-10T12:05:14.202Z,11.53
2019-03-10T12:06:14.155Z,11.48
2019-03-10T12:07:14.113Z,11.44
2019-03-10T12:08:14.067Z,11.43
2019-03-10T12:09:14.022Z,11.44
2019-03-10T12:10:13.980Z,11.43
2019-03-10T12:11:13.922Z,11.43
2019-03-10T12:12:13.878Z,11.41
2019-03-10T12:13:13.841Z,11.37
2019-03-10T12:14:13.807Z,11.22
2019-03-10T12:15:13.740Z,11.27
2019-03-10T12:16:13.697Z,11.22
2019-03-10T12:17:13.642Z,11.20
2019-03-10T12:18:13.598Z,11.20
2019-03-10T12:19:13.551Z,10.98
2019-03-10T12:20:13.504Z,11.08
2019-03-10T12:21:13.458Z,11.01
2019-03-10T12:22:13.416Z,10.97
2019-03-10T12:23:13.366Z,10.92
2019-03-10T12:24:13.318Z,10.97
2019-03-10T12:25:13.275Z,10.97
2019-03-10T12:26:13.219Z,10.94
2019-03-10T12:27:13.176Z,10.95
2019-03-10T12:28:13.128Z,10.98
2019-03-10T12:29:13.081Z,10.97
2019-03-10T12:30:13.034Z,10.92
2019-03-10T12:31:12.988Z,10.89
2019-03-10T12:32:12.946Z,10.86
2019-03-10T12:33:12.891Z,10.90
2019-03-10T12:34:12.845Z,10.86
2019-03-10T12:35:12.803Z,10.84
2019-03-10T12:36:12.752Z,10.92
2019-03-10T12:37:12.707Z,10.89
2019-03-10T12:38:12.660Z,10.92
2019-03-10T12:39:12.613Z,11.01
2019-03-10T12:40:12.564Z,10.95
2019-03-10T12:41:12.516Z,10.97
2019-03-10T12:42:12.470Z,10.95
2019-03-10T12:43:12.425Z,11.04
2019-03-10T12:44:12.375Z,10.92
2019-03-10T12:45:12.333Z,11.01
2019-03-10T12:46:12.284Z,10.90
2019-03-10T12:47:12.234Z,10.87
2019-03-10T12:48:12.187Z,10.92
2019-03-10T12:49:12.139Z,10.94
2019-03-10T12:50:12.094Z,11.04
2019-03-10T12:51:12.046Z,11.12
2019-03-10T12:52:12.003Z,11.07
2019-03-10T12:53:11.953Z,11.15
2019-03-10T12:54:11.907Z,11.22
2019-03-10T12:55:11.859Z,11.15
2019-03-10T12:56:11.812Z,11.16
2019-03-10T12:57:11.765Z,11.08
2019-03-10T12:58:11.720Z,11.00
2019-03-10T12:59:11.677Z,11.12
2019-03-10T13:00:13.524Z,11.08
2019-03-10T13:01:11.584Z,11.05
2019-03-10T13:02:11.528Z,11.01
2019-03-10T13:03:11.487Z,11.04
2019-03-10T13:04:11.437Z,10.98
2019-03-10T13:05:11.393Z,10.95
2019-03-10T13:06:11.350Z,10.83
2019-03-10T13:07:11.303Z,10.87
2019-03-10T13:08:11.254Z,10.94
2019-03-10T13:09:11.203Z,10.86
2019-03-10T13:10:12.673Z,10.87
2019-03-10T13:11:11.110Z,10.77
2019-03-10T13:12:11.063Z,10.69